createdAt,value
2024-01-30T00:02:04.018Z,100.00
2024-01-30T00:05:06.229Z,100.00
2024-01-30T00:08:08.185Z,100.00
2024-01-30T00:11:10.064Z,100.00
2024-01-30T00:14:12.106Z,100.00
2024-01-30T00:17:13.970Z,100.00
2024-01-30T00:20:15.928Z,100.00
2024-01-30T00:23:17.816Z,100.00
2024-01-30T00:26:19.713Z,100.00
2024-01-30T00:29:23.319Z,100.00
2024-01-30T00:32:25.174Z,100.00
2024-01-30T00:35:28.140Z,100.00
2024-01-30T00:38:29.943Z,100.00
2024-01-30T00:41:31.673Z,100.00
2024-01-30T00:44:38.328Z,100.00
2024-01-30T00:47:40.175Z,100.00
2024-01-30T00:50:41.987Z,100.00
2024-01-30T00:53:43.842Z,100.00
2024-01-30T00:56:45.592Z,100.00
2024-01-30T00:59:47.449Z,100.00
2024-01-30T01:02:49.343Z,100.00
2024-01-30T01:05:51.167Z,100.00
2024-01-30T01:08:53.072Z,100.00
2024-01-30T01:11:54.870Z,100.00
2024-01-30T01:14:56.841Z,100.00
2024-01-30T01:17:58.735Z,100.00
2024-01-30T01:21:01.434Z,100.00
2024-01-30T01:24:03.193Z,100.00
2024-01-30T01:27:06.569Z,100.00
2024-01-30T01:30:10.880Z,100.00
2024-01-30T01:33:15.453Z,100.00
2024-01-30T01:36:17.453Z,100.00
2024-01-30T01:39:19.296Z,100.00
2024-01-30T01:42:21.050Z,100.00
2024-01-30T01:45:23.100Z,100.00
2024-01-30T01:48:25.233Z,100.00
2024-01-30T01:51:28.816Z,100.00
2024-01-30T01:54:30.921Z,100.00
2024-01-30T01:57:33.165Z,100.00
2024-01-30T02:00:35.766Z,100.00
2024-01-30T02:03:37.973Z,100.00
2024-01-30T02:06:40.169Z,100.00
2024-01-30T02:09:42.066Z,100.00
2024-01-30T02:12:43.842Z,100.00
2024-01-30T02:15:50.601Z,100.00
2024-01-30T02:18:52.463Z,100.00
2024-01-30T02:21:54.951Z,100.00
2024-01-30T02:24:56.778Z,100.00
2024-01-30T02:27:58.739Z,100.00
2024-01-30T02:31:00.699Z,100.00
2024-01-30T02:34:02.533Z,100.00
2024-01-30T02:37:04.586Z,100.00
2024-01-30T02:40:07.247Z,100.00
2024-01-30T02:43:09.030Z,100.00
2024-01-30T02:46:11.106Z,100.00
2024-01-30T02:49:13.184Z,100.00
2024-01-30T02:52:15.391Z,100.00
2024-01-30T02:55:20.103Z,100.00
2024-01-30T02:58:22.064Z,100.00
2024-01-30T03:01:25.714Z,100.00
2024-01-30T03:04:27.951Z,100.00
2024-01-30T03:07:30.064Z,100.00
2024-01-30T03:10:32.055Z,100.00
2024-01-30T03:13:33.798Z,100.00
2024-01-30T03:16:35.691Z,100.00
2024-01-30T03:19:37.552Z,100.00
2024-01-30T03:22:39.513Z,100.00
2024-01-30T03:25:41.273Z,100.00
2024-01-30T03:28:43.000Z,100.00
2024-01-30T03:31:44.886Z,100.00
2024-01-30T03:34:46.989Z,100.00
2024-01-30T03:37:48.811Z,100.00
2024-01-30T03:40:50.606Z,100.00
2024-01-30T03:43:52.341Z,100.00
2024-01-30T03:46:54.089Z,100.00
2024-01-30T03:49:55.980Z,100.00
2024-01-30T03:52:57.916Z,100.00
2024-01-30T03:55:59.723Z,100.00
2024-01-30T03:59:01.839Z,100.00
2024-01-30T04:02:03.970Z,100.00
2024-01-30T04:05:06.346Z,100.00
2024-01-30T04:08:08.710Z,100.00
2024-01-30T04:11:10.543Z,100.00
2024-01-30T04:14:12.320Z,100.00
2024-01-30T04:17:14.668Z,100.00
2024-01-30T04:20:20.136Z,100.00
2024-01-30T04:23:22.076Z,100.00
2024-01-30T04:26:24.692Z,100.00
2024-01-30T04:29:26.625Z,100.00
2024-01-30T04:32:28.378Z,100.00
2024-01-30T04:35:30.191Z,100.00
2024-01-30T04:38:32.946Z,100.00
2024-01-30T04:41:35.087Z,100.00
2024-01-30T04:44:37.099Z,100.00
2024-01-30T04:47:40.096Z,100.00
2024-01-30T04:50:42.086Z,100.00
2024-01-30T04:53:43.857Z,100.00
2024-01-30T04:56:45.718Z,100.00
2024-01-30T04:59:47.515Z,100.00
2024-01-30T05:02:49.321Z,100.00
2024-01-30T05:05:51.157Z,100.00
2024-01-30T05:08:53.027Z,100.00
2024-01-30T05:11:54.915Z,100.00
2024-01-30T05:14:56.758Z,100.00
2024-01-30T05:17:58.656Z,100.00
2024-01-30T05:21:00.807Z,100.00
2024-01-30T05:24:02.665Z,100.00
2024-01-30T05:27:04.515Z,100.00
2024-01-30T05:30:09.871Z,100.00
2024-01-30T05:33:13.350Z,100.00
2024-01-30T05:36:15.473Z,100.00
2024-01-30T05:39:17.190Z,100.00
2024-01-30T05:42:19.001Z,100.00
2024-01-30T05:45:21.098Z,100.00
2024-01-30T05:48:22.924Z,100.00
2024-01-30T05:51:25.149Z,100.00
2024-01-30T05:54:26.880Z,100.00
2024-01-30T05:57:28.790Z,100.00
2024-01-30T06:00:30.932Z,100.00
2024-01-30T06:03:32.769Z,100.00
2024-01-30T06:06:34.891Z,100.00
2024-01-30T06:09:36.857Z,100.00
2024-01-30T06:12:38.970Z,100.00
2024-01-30T06:15:40.899Z,100.00
2024-01-30T06:18:42.747Z,100.00
2024-01-30T06:21:44.610Z,100.00
2024-01-30T06:24:48.983Z,100.00
2024-01-30T06:27:51.006Z,100.00
2024-01-30T06:30:52.952Z,100.00
2024-01-30T06:33:54.897Z,100.00
2024-01-30T06:36:56.790Z,100.00
2024-01-30T06:39:58.674Z,100.00
2024-01-30T06:43:00.628Z,100.00
2024-01-30T06:46:02.505Z,100.00
2024-01-30T06:49:04.433Z,100.00
2024-01-30T06:52:07.296Z,100.00
2024-01-30T06:55:09.627Z,100.00
2024-01-30T06:58:11.687Z,100.00
2024-01-30T07:01:13.569Z,100.00
2024-01-30T07:04:15.601Z,100.00
2024-01-30T07:07:17.681Z,100.00
2024-01-30T07:10:19.554Z,99.47
2024-01-30T07:13:21.455Z,93.88
2024-01-30T07:16:24.301Z,87.25
2024-01-30T07:19:26.382Z,81.08
2024-01-30T07:22:28.399Z,77.66
2024-01-30T07:25:31.202Z,73.74
2024-01-30T07:28:33.835Z,70.94
2024-01-30T07:31:35.894Z,71.13
2024-01-30T07:34:45.114Z,66.13
2024-01-30T07:40:56.649Z,62.72
2024-01-30T07:43:58.539Z,60.29
2024-01-30T07:47:00.686Z,62.56
2024-01-30T07:50:02.877Z,59.80
2024-01-30T07:53:05.004Z,62.89
2024-01-30T07:56:06.961Z,62.15
2024-01-30T07:59:12.451Z,70.32
2024-01-30T08:02:14.645Z,72.01
2024-01-30T08:05:16.778Z,70.17
2024-01-30T08:08:18.545Z,62.95
2024-01-30T08:11:27.849Z,58.68
2024-01-30T08:14:29.804Z,53.90
2024-01-30T08:17:31.706Z,52.05
2024-01-30T08:20:33.630Z,49.10
2024-01-30T08:23:35.352Z,51.41
2024-01-30T08:26:38.199Z,50.28
2024-01-30T08:29:40.060Z,51.02
2024-01-30T08:32:41.908Z,49.38
2024-01-30T08:35:43.886Z,47.92
2024-01-30T08:38:45.847Z,44.96
2024-01-30T08:41:48.173Z,43.17
2024-01-30T08:44:52.536Z,43.07
2024-01-30T08:47:54.465Z,43.01
2024-01-30T08:50:56.504Z,43.71
2024-01-30T08:53:58.347Z,40.15
2024-01-30T08:57:00.189Z,43.49
2024-01-30T09:00:05.551Z,43.99
2024-01-30T09:03:07.448Z,42.17
2024-01-30T09:06:10.050Z,42.78
2024-01-30T09:09:11.822Z,40.74
2024-01-30T09:12:14.282Z,40.19
2024-01-30T09:15:16.450Z,38.15
2024-01-30T09:18:18.417Z,40.66
2024-01-30T09:21:20.436Z,37.59
2024-01-30T09:24:22.326Z,36.93
2024-01-30T09:27:24.186Z,36.23
2024-01-30T09:30:26.054Z,37.40
2024-01-30T09:33:27.829Z,38.02
2024-01-30T09:36:29.923Z,36.03
2024-01-30T09:39:31.841Z,37.43
2024-01-30T09:42:37.769Z,34.96
2024-01-30T09:45:43.086Z,33.60
2024-01-30T09:48:48.488Z,36.19
2024-01-30T09:51:51.406Z,33.11
2024-01-30T09:54:54.642Z,34.18
2024-01-30T09:57:56.518Z,34.82
2024-01-30T10:00:59.838Z,40.27
2024-01-30T10:04:02.086Z,36.69
2024-01-30T10:07:04.900Z,35.42
2024-01-30T10:10:07.877Z,33.83
2024-01-30T10:13:11.962Z,33.94
2024-01-30T10:16:16.691Z,34.62
2024-01-30T10:19:19.658Z,33.92
2024-01-30T10:22:21.872Z,35.59
2024-01-30T10:25:24.466Z,33.39
2024-01-30T10:28:30.873Z,34.20
2024-01-30T10:31:32.771Z,33.20
2024-01-30T10:34:35.670Z,30.57
2024-01-30T10:37:37.582Z,32.32
2024-01-30T10:40:41.187Z,32.21
2024-01-30T10:43:48.737Z,35.34
2024-01-30T10:46:57.745Z,32.48
2024-01-30T10:50:00.724Z,32.80
2024-01-30T10:53:05.204Z,33.57
2024-01-30T10:56:08.990Z,34.82
2024-01-30T10:59:12.294Z,32.90
2024-01-30T11:02:15.477Z,34.60
2024-01-30T11:05:28.701Z,37.13
2024-01-30T11:08:33.658Z,38.44
2024-01-30T11:12:01.699Z,39.65
2024-01-30T11:15:08.260Z,41.35
2024-01-30T11:18:10.315Z,44.36
2024-01-30T11:21:15.032Z,46.40
2024-01-30T11:24:16.824Z,44.22
2024-01-30T11:27:18.805Z,44.67
2024-01-30T11:30:27.927Z,49.08
2024-01-30T11:33:34.973Z,52.85
2024-01-30T11:36:38.678Z,57.71
2024-01-30T11:39:42.713Z,56.71
2024-01-30T11:42:45.033Z,55.02
2024-01-30T11:45:47.664Z,55.73
2024-01-30T11:48:49.691Z,57.31
2024-01-30T11:51:51.941Z,56.59
2024-01-30T11:54:54.379Z,56.60
2024-01-30T11:57:57.194Z,57.76
2024-01-30T12:00:59.919Z,56.81
2024-01-30T12:04:02.001Z,57.20
2024-01-30T12:07:04.861Z,57.03
2024-01-30T12:10:08.887Z,57.78
2024-01-30T12:13:10.986Z,59.01
2024-01-30T12:16:14.534Z,58.33
2024-01-30T12:19:24.370Z,58.05
2024-01-30T12:22:26.722Z,56.23
2024-01-30T12:25:28.758Z,57.88
2024-01-30T12:28:31.063Z,58.49
2024-01-30T12:31:34.023Z,61.06
2024-01-30T12:34:49.839Z,59.26
2024-01-30T12:37:59.057Z,58.19
2024-01-30T12:41:01.172Z,57.96
2024-01-30T12:44:03.556Z,58.79
2024-01-30T12:47:05.560Z,59.01
2024-01-30T12:50:07.635Z,59.82
2024-01-30T12:53:10.415Z,60.87
2024-01-30T12:56:12.397Z,59.34
2024-01-30T12:59:14.248Z,59.21
2024-01-30T13:02:16.642Z,59.16
2024-01-30T13:05:18.907Z,61.57
2024-01-30T13:08:21.035Z,61.98
2024-01-30T13:11:22.952Z,65.16
2024-01-30T13:14:26.048Z,63.94
2024-01-30T13:17:28.964Z,63.76
2024-01-30T13:20:31.048Z,62.14
2024-01-30T13:23:33.006Z,59.28
2024-01-30T13:26:34.920Z,57.33
2024-01-30T13:29:36.765Z,56.73
2024-01-30T13:32:39.352Z,59.80
2024-01-30T13:35:41.382Z,61.28
2024-01-30T13:38:43.276Z,63.46
2024-01-30T13:41:45.288Z,63.26
2024-01-30T13:44:47.146Z,64.82
2024-01-30T13:47:49.149Z,65.33
2024-01-30T13:50:51.199Z,66.26
2024-01-30T13:53:53.746Z,66.17
2024-01-30T13:56:55.733Z,64.94
2024-01-30T13:59:58.405Z,65.54
2024-01-30T14:03:00.645Z,66.87
2024-01-30T14:06:02.620Z,65.60
2024-01-30T14:09:08.478Z,66.12
2024-01-30T14:12:10.855Z,67.10
2024-01-30T14:15:22.794Z,66.39
2024-01-30T14:18:29.606Z,67.78
2024-01-30T14:21:31.421Z,68.91
2024-01-30T14:24:33.277Z,67.72
2024-01-30T14:27:36.519Z,68.56
2024-01-30T14:30:38.510Z,66.88
2024-01-30T14:33:41.299Z,67.75
2024-01-30T14:36:43.525Z,67.75
2024-01-30T14:39:45.311Z,68.23
2024-01-30T14:42:47.491Z,68.93
2024-01-30T14:45:50.753Z,66.44
2024-01-30T14:48:53.020Z,67.01
2024-01-30T14:51:55.544Z,69.53
2024-01-30T14:54:57.643Z,68.58
2024-01-30T14:58:00.697Z,67.91
2024-01-30T15:01:02.736Z,67.68
2024-01-30T15:04:04.879Z,68.57
2024-01-30T15:07:06.949Z,68.78
2024-01-30T15:10:10.626Z,69.85
2024-01-30T15:13:13.205Z,70.97
2024-01-30T15:16:15.444Z,72.29
2024-01-30T15:19:17.503Z,73.01
2024-01-30T15:22:19.544Z,73.44
2024-01-30T15:25:21.818Z,74.69
2024-01-30T15:28:37.481Z,74.35
2024-01-30T15:31:39.874Z,73.84
2024-01-30T15:34:41.787Z,75.57
2024-01-30T15:37:43.775Z,75.71
2024-01-30T15:40:45.543Z,77.16
2024-01-30T15:43:47.290Z,77.11
2024-01-30T15:46:49.286Z,77.66
2024-01-30T15:49:51.286Z,78.95
2024-01-30T15:52:53.221Z,80.50
2024-01-30T15:55:55.062Z,79.67
2024-01-30T15:58:57.944Z,80.80
2024-01-30T16:01:59.939Z,81.99
2024-01-30T16:05:03.241Z,82.94
2024-01-30T16:08:05.264Z,84.04
2024-01-30T16:11:07.224Z,83.99
2024-01-30T16:14:09.033Z,85.99
2024-01-30T16:17:11.394Z,86.47
2024-01-30T16:20:15.747Z,87.37
2024-01-30T16:23:17.836Z,89.35
2024-01-30T16:26:20.584Z,92.87
2024-01-30T16:29:22.464Z,92.70
2024-01-30T16:32:24.436Z,93.83
2024-01-30T16:35:44.350Z,93.23
2024-01-30T16:38:48.154Z,95.75
2024-01-30T16:41:50.369Z,95.17
2024-01-30T16:44:52.147Z,97.30
2024-01-30T16:47:54.710Z,98.40
2024-01-30T16:50:56.655Z,97.83
2024-01-30T16:53:58.482Z,96.83
2024-01-30T16:57:00.313Z,97.72
2024-01-30T17:00:02.191Z,99.45
2024-01-30T17:03:04.791Z,98.40
2024-01-30T17:06:09.439Z,98.70
2024-01-30T17:09:16.086Z,100.00
2024-01-30T17:12:18.228Z,100.00
2024-01-30T17:18:22.239Z,100.00
2024-01-30T17:21:26.088Z,100.00
2024-01-30T17:24:33.993Z,100.00
2024-01-30T17:27:45.715Z,100.00
2024-01-30T17:30:49.054Z,100.00
2024-01-30T17:33:52.113Z,100.00
2024-01-30T17:36:54.325Z,100.00
2024-01-30T17:39:56.528Z,100.00
2024-01-30T17:42:58.313Z,100.00
2024-01-30T17:46:00.988Z,100.00
2024-01-30T17:49:05.409Z,100.00
2024-01-30T17:52:08.591Z,100.00
2024-01-30T17:55:10.842Z,100.00
2024-01-30T17:58:12.966Z,100.00
2024-01-30T18:01:15.113Z,100.00
2024-01-30T18:04:19.173Z,99.25
2024-01-30T18:07:21.958Z,98.43
2024-01-30T18:10:23.887Z,97.89
2024-01-30T18:13:26.048Z,97.37
2024-01-30T18:16:28.170Z,96.20
2024-01-30T18:19:30.619Z,95.04
2024-01-30T18:22:33.164Z,95.82
2024-01-30T18:25:35.444Z,95.34
2024-01-30T18:28:37.660Z,94.64
2024-01-30T18:31:43.063Z,94.34
2024-01-30T18:34:45.361Z,94.47
2024-01-30T18:37:47.635Z,93.64
2024-01-30T18:40:49.877Z,93.55
2024-01-30T18:43:52.040Z,93.83
2024-01-30T18:46:54.185Z,93.98
2024-01-30T18:49:56.476Z,92.21
2024-01-30T18:52:58.522Z,92.41
2024-01-30T18:56:00.338Z,91.83
2024-01-30T18:59:02.538Z,91.41
2024-01-30T19:02:05.058Z,90.60
2024-01-30T19:05:07.259Z,90.48
2024-01-30T19:08:09.549Z,90.16
2024-01-30T19:11:21.063Z,89.27
2024-01-30T19:14:24.122Z,89.06
2024-01-30T19:17:26.004Z,88.31
2024-01-30T19:20:28.426Z,88.35
2024-01-30T19:23:30.539Z,88.26
2024-01-30T19:26:32.368Z,88.14
2024-01-30T19:29:34.171Z,87.70
2024-01-30T19:32:37.028Z,86.80
2024-01-30T19:35:38.965Z,87.22
2024-01-30T19:38:40.873Z,86.55
2024-01-30T19:41:44.979Z,88.22
2024-01-30T19:44:47.429Z,86.82
2024-01-30T19:47:49.888Z,87.60
2024-01-30T19:50:52.658Z,87.95
2024-01-30T19:53:55.312Z,86.02
2024-01-30T19:56:57.813Z,85.31
2024-01-30T20:00:00.024Z,86.71
2024-01-30T20:03:06.942Z,85.53
2024-01-30T20:11:04.293Z,86.02
2024-01-30T20:14:06.779Z,86.24
2024-01-30T20:17:09.255Z,85.78
2024-01-30T20:20:12.368Z,85.61
2024-01-30T20:23:14.643Z,86.18
2024-01-30T20:26:16.882Z,85.40
2024-01-30T20:29:19.564Z,85.23
2024-01-30T20:32:22.340Z,85.42
2024-01-30T20:35:25.401Z,85.94
2024-01-30T20:38:30.749Z,85.65
2024-01-30T20:41:39.932Z,85.96
2024-01-30T20:44:42.264Z,85.85
2024-01-30T20:47:44.603Z,86.10
2024-01-30T20:50:46.819Z,85.40
2024-01-30T20:53:48.825Z,86.73
2024-01-30T20:56:50.630Z,86.50
2024-01-30T20:59:52.475Z,85.56
2024-01-30T21:02:54.366Z,86.11
2024-01-30T21:05:56.636Z,86.94
2024-01-30T21:08:58.547Z,86.68
2024-01-30T21:12:00.625Z,87.41
2024-01-30T21:15:04.890Z,87.80
2024-01-30T21:18:09.613Z,88.41
2024-01-30T21:21:11.849Z,87.11
2024-01-30T21:24:13.857Z,87.62
2024-01-30T21:27:15.757Z,86.62
2024-01-30T21:30:17.945Z,86.75
2024-01-30T21:33:19.961Z,86.88
2024-01-30T21:36:22.131Z,87.13
2024-01-30T21:39:23.958Z,86.79
2024-01-30T21:42:26.548Z,86.07
2024-01-30T21:45:29.493Z,85.16
2024-01-30T21:48:31.332Z,85.37
2024-01-30T21:51:33.195Z,85.93
2024-01-30T21:54:38.744Z,85.91
2024-01-30T21:57:40.676Z,86.17
2024-01-30T22:00:42.756Z,86.21
2024-01-30T22:03:46.790Z,86.43
2024-01-30T22:06:48.617Z,86.28
2024-01-30T22:09:50.408Z,86.66
2024-01-30T22:12:52.189Z,87.66
2024-01-30T22:15:54.064Z,87.97
2024-01-30T22:18:56.050Z,87.73
2024-01-30T22:21:58.441Z,88.34
2024-01-30T22:25:00.601Z,88.08
2024-01-30T22:28:02.461Z,88.49
2024-01-30T22:31:04.471Z,89.71
2024-01-30T22:34:06.304Z,90.39
2024-01-30T22:37:08.136Z,90.77
2024-01-30T22:40:10.481Z,91.59
2024-01-30T22:43:12.321Z,91.88
2024-01-30T22:46:14.175Z,92.25
2024-01-30T22:49:16.038Z,92.60
2024-01-30T22:52:18.598Z,92.52
2024-01-30T22:55:20.723Z,93.26
2024-01-30T22:58:22.597Z,93.70
2024-01-30T23:01:24.608Z,93.84
2024-01-30T23:04:26.583Z,94.64
2024-01-30T23:07:28.616Z,94.55
2024-01-30T23:10:30.462Z,95.23
2024-01-30T23:13:32.300Z,96.12
2024-01-30T23:16:34.183Z,96.62
2024-01-30T23:19:36.143Z,95.75
2024-01-30T23:22:38.214Z,97.50
2024-01-30T23:25:40.281Z,98.15
2024-01-30T23:28:44.600Z,98.79
2024-01-30T23:31:46.675Z,99.02
2024-01-30T23:34:48.623Z,100.00
2024-01-30T23:37:50.507Z,100.00
2024-01-30T23:40:53.533Z,100.00
2024-01-30T23:43:55.437Z,100.00
2024-01-30T23:46:57.514Z,99.99
2024-01-30T23:49:59.326Z,99.62
2024-01-30T23:53:01.153Z,99.25
2024-01-30T23:56:02.982Z,99.66
2024-01-30T23:59:04.744Z,100.00
